Time;durP1;ratioP1;P1;durP2;ratioP2;P2;SDS_P1;SDS_P2;PMS_P1;PMS_P2;Temp;Humidity;BMP_temperature;BMP_pressure;BME280_temperature;BME280_humidity;BME280_pressure;Samples;Min_cycle;Max_cycle;Signal;HPM_P1;HPM_P2
2022/10/23 00:00:41;;;;;;;6.18;2.72;;;;;;;10.47;100.00;97390.44;5089285;28;20050;-61
2022/10/23 00:03:07;;;;;;;5.80;2.92;;;;;;;10.42;100.00;97383.03;5089877;28;20144;-61
2022/10/23 00:05:39;;;;;;;5.47;2.53;;;;;;;10.43;100.00;97390.06;5089790;28;20613;-60
2022/10/23 00:08:06;;;;;;;6.05;2.72;;;;;;;10.39;100.00;97388.94;5090003;28;20474;-61
2022/10/23 00:10:33;;;;;;;10.45;3.05;;;;;;;10.37;100.00;97386.50;5088953;28;20042;-60
2022/10/23 00:12:59;;;;;;;8.00;3.00;;;;;;;10.35;100.00;97380.50;5089796;28;20075;-60
2022/10/23 00:15:26;;;;;;;8.20;2.90;;;;;;;10.33;100.00;97379.13;5089412;28;20040;-60
2022/10/23 00:17:53;;;;;;;7.80;3.08;;;;;;;10.30;100.00;97382.31;5089777;28;20040;-61
2022/10/23 00:20:20;;;;;;;8.55;3.60;;;;;;;10.28;100.00;97391.50;5089015;28;20039;-60
2022/10/23 00:22:47;;;;;;;11.23;3.63;;;;;;;10.28;100.00;97385.28;5085972;28;20044;-60
2022/10/23 00:25:15;;;;;;;12.35;3.20;;;;;;;10.23;100.00;97386.03;5069317;28;20060;-61
2022/10/23 00:27:41;;;;;;;7.55;2.88;;;;;;;10.14;100.00;97387.53;5069017;28;20418;-60
2022/10/23 00:30:09;;;;;;;7.93;3.33;;;;;;;10.13;100.00;97386.69;5067382;28;20503;-60
2022/10/23 00:32:36;;;;;;;7.57;3.03;;;;;;;10.17;100.00;97384.31;5068309;28;20123;-62
2022/10/23 00:35:03;;;;;;;7.53;3.13;;;;;;;10.12;100.00;97381.53;5069201;28;20079;-60
2022/10/23 00:37:30;;;;;;;8.52;2.92;;;;;;;10.06;100.00;97379.84;5068656;28;20041;-61
2022/10/23 00:39:56;;;;;;;7.30;3.30;;;;;;;10.02;100.00;97379.50;5067645;28;20131;-61
2022/10/23 00:42:23;;;;;;;7.18;3.70;;;;;;;9.97;100.00;97372.16;5077048;28;20127;-59
2022/10/23 00:44:49;;;;;;;6.63;3.65;;;;;;;9.96;100.00;97367.81;5088913;28;20122;-61
2022/10/23 00:47:17;;;;;;;8.55;3.47;;;;;;;10.00;100.00;97368.91;5088579;28;20489;-61
2022/10/23 00:49:43;;;;;;;15.63;4.75;;;;;;;10.08;100.00;97369.56;5088462;28;20452;-62
2022/10/23 00:52:12;;;;;;;6.95;3.55;;;;;;;10.12;100.00;97368.84;5087030;28;20139;-61
2022/10/23 00:54:40;;;;;;;18.42;4.35;;;;;;;10.17;100.00;97361.88;5084725;28;20074;-62
2022/10/23 00:57:11;;;;;;;7.35;3.00;;;;;;;10.26;100.00;97360.34;5087129;28;20090;-61
2022/10/23 00:59:40;;;;;;;10.63;3.15;;;;;;;10.33;100.00;97358.28;5087962;28;20130;-62
2022/10/23 01:02:07;;;;;;;8.30;3.00;;;;;;;10.34;100.00;97350.97;5080496;28;20555;-61
2022/10/23 01:04:35;;;;;;;16.13;3.80;;;;;;;10.32;100.00;97362.06;5086875;28;20221;-61
2022/10/23 01:07:10;;;;;;;5.70;2.63;;;;;;;10.31;100.00;97355.00;5087086;28;20044;-61
2022/10/23 01:09:45;;;;;;;5.68;2.63;;;;;;;10.36;100.00;97365.09;5086639;28;20086;-61
2022/10/23 01:12:20;;;;;;;7.03;2.65;;;;;;;10.39;100.00;97351.03;5087871;28;20166;-61
2022/10/23 01:15:12;;;;;;;6.38;2.65;;;;;;;10.49;100.00;97353.09;5087003;28;20048;-62
2022/10/23 01:17:47;;;;;;;8.10;2.42;;;;;;;10.58;100.00;97348.06;5086732;28;20605;-59
2022/10/23 01:20:36;;;;;;;6.32;2.47;;;;;;;10.64;100.00;97347.88;5086061;28;20051;-60
2022/10/23 01:23:26;;;;;;;5.45;2.58;;;;;;;10.67;100.00;97338.41;5080861;28;20091;-60
2022/10/23 01:26:27;;;;;;;6.43;2.53;;;;;;;10.65;100.00;97335.97;5060982;28;20439;-59
2022/10/23 01:29:04;;;;;;;6.90;2.45;;;;;;;10.62;100.00;97331.03;5065986;28;20052;-59
2022/10/23 01:32:00;;;;;;;8.52;3.05;;;;;;;10.54;100.00;97335.03;5065375;28;20041;-59
2022/10/23 01:34:33;;;;;;;5.82;2.60;;;;;;;10.50;100.00;97331.19;5065936;28;20045;-60
2022/10/23 01:37:03;;;;;;;7.82;2.75;;;;;;;10.48;100.00;97333.34;5066108;28;20044;-59
2022/10/23 01:39:37;;;;;;;4.22;2.03;;;;;;;10.44;100.00;97332.22;5065713;28;20154;-59
2022/10/23 01:42:12;;;;;;;7.63;3.17;;;;;;;10.36;100.00;97319.88;5072822;28;20119;-59
2022/10/23 01:44:45;;;;;;;5.03;2.20;;;;;;;10.32;100.00;97323.38;5085985;28;20121;-58
2022/10/23 01:47:14;;;;;;;5.50;2.50;;;;;;;10.33;100.00;97327.69;5082550;28;20040;-58
2022/10/23 01:49:58;;;;;;;9.35;2.70;;;;;;;10.38;100.00;97331.28;5081035;28;20035;-59
2022/10/23 01:52:25;;;;;;;5.47;2.45;;;;;;;10.38;100.00;97334.00;5085093;28;20340;-58
2022/10/23 01:54:55;;;;;;;7.97;3.00;;;;;;;10.37;100.00;97326.13;5082659;28;20089;-59
2022/10/23 01:57:25;;;;;;;9.10;3.28;;;;;;;10.36;100.00;97328.00;5078372;28;20044;-60
2022/10/23 02:00:00;;;;;;;6.55;3.28;;;;;;;10.38;100.00;97320.47;5084574;28;20445;-59
2022/10/23 02:02:30;;;;;;;7.47;3.08;;;;;;;10.39;100.00;97313.16;5085390;28;20570;-59
2022/10/23 02:05:06;;;;;;;9.30;2.80;;;;;;;10.39;100.00;97311.28;5083878;28;20519;-58
2022/10/23 02:07:33;;;;;;;6.05;2.70;;;;;;;10.42;100.00;97318.06;5081075;28;20071;-59
2022/10/23 02:10:01;;;;;;;6.78;2.85;;;;;;;10.58;100.00;97313.66;5085148;28;20388;-58
2022/10/23 02:12:40;;;;;;;6.15;3.10;;;;;;;10.65;100.00;97303.47;5084975;28;20047;-59
2022/10/23 02:15:20;;;;;;;4.93;2.60;;;;;;;10.68;100.00;97295.91;5086637;28;20093;-60
2022/10/23 02:18:31;;;;;;;9.82;2.53;;;;;;;10.64;100.00;97295.59;5086209;28;20036;-59
2022/10/23 02:21:04;;;;;;;6.63;2.40;;;;;;;10.57;100.00;97287.69;5085147;28;20039;-59
2022/10/23 02:23:33;;;;;;;5.63;2.55;;;;;;;10.60;100.00;97292.59;5075539;28;20054;-59
2022/10/23 02:26:06;;;;;;;6.20;2.22;;;;;;;10.61;100.00;97288.00;5066593;28;20052;-60
2022/10/23 02:28:40;;;;;;;5.75;2.70;;;;;;;10.63;100.00;97286.69;5064415;28;20033;-59
2022/10/23 02:31:11;;;;;;;4.50;2.15;;;;;;;10.63;100.00;97283.13;5065148;28;20055;-58
2022/10/23 02:33:38;;;;;;;4.43;2.65;;;;;;;10.63;100.00;97285.84;5080459;28;20116;-59
2022/10/23 02:36:05;;;;;;;5.40;2.38;;;;;;;10.59;100.00;97282.84;5084556;28;20082;-60
2022/10/23 02:38:39;;;;;;;6.63;2.78;;;;;;;10.60;100.00;97280.94;5080768;28;20075;-58
2022/10/23 02:41:31;;;;;;;4.03;1.98;;;;;;;10.63;100.00;97270.44;5065934;28;20102;-59
2022/10/23 02:44:24;;;;;;;9.45;2.40;;;;;;;10.73;100.00;97268.88;5064704;28;20044;-59
2022/10/23 02:47:29;;;;;;;7.03;2.20;;;;;;;10.74;100.00;97259.69;5080063;28;20293;-58
2022/10/23 02:50:18;;;;;;;4.80;2.00;;;;;;;10.78;100.00;97263.53;5084313;28;20051;-59
2022/10/23 02:53:06;;;;;;;4.45;1.85;;;;;;;10.79;100.00;97259.72;5082510;28;20106;-59
2022/10/23 02:56:02;;;;;;;5.18;1.88;;;;;;;10.81;100.00;97249.47;5083978;28;20071;-60
2022/10/23 02:58:35;;;;;;;4.65;2.08;;;;;;;10.85;100.00;97256.00;5084799;28;20044;-60
2022/10/23 03:01:10;;;;;;;5.13;2.00;;;;;;;10.87;100.00;97256.56;5084240;28;20072;-59
2022/10/23 03:03:43;;;;;;;5.45;2.03;;;;;;;10.91;100.00;97254.97;5084866;28;20545;-60
2022/10/23 03:06:10;;;;;;;8.68;2.22;;;;;;;10.94;100.00;97248.22;5086154;28;20071;-60
2022/10/23 03:08:56;;;;;;;10.77;3.05;;;;;;;10.96;100.00;97246.09;5084605;28;20044;-60
2022/10/23 03:11:24;;;;;;;8.23;2.35;;;;;;;11.00;100.00;97251.78;5083883;28;20074;-59
2022/10/23 03:13:51;;;;;;;6.80;2.30;;;;;;;11.02;100.00;97245.03;5086164;28;20040;-59
2022/10/23 03:16:17;;;;;;;5.10;2.17;;;;;;;11.00;100.00;97247.22;5085932;28;20040;-59
2022/10/23 03:18:50;;;;;;;3.95;2.13;;;;;;;11.01;100.00;97248.00;5084388;28;20097;-60
2022/10/23 03:21:16;;;;;;;6.10;2.42;;;;;;;10.95;100.00;97252.59;5084483;28;20507;-60
2022/10/23 03:23:43;;;;;;;4.78;2.00;;;;;;;10.96;100.00;97246.09;5073714;28;20114;-60
2022/10/23 03:26:16;;;;;;;5.03;1.98;;;;;;;10.92;100.00;97247.69;5064737;28;20049;-59
2022/10/23 03:28:42;;;;;;;5.65;1.92;;;;;;;10.92;100.00;97243.06;5070174;28;21900;-58
2022/10/23 03:31:08;;;;;;;3.05;1.70;;;;;;;10.91;100.00;97238.72;5086007;28;20444;-60
2022/10/23 03:33:37;;;;;;;6.10;1.88;;;;;;;10.92;100.00;97236.84;5084682;28;20050;-59
2022/10/23 03:36:07;;;;;;;4.05;2.17;;;;;;;10.92;100.00;97236.84;5085114;28;20714;-59
2022/10/23 03:38:34;;;;;;;4.20;1.92;;;;;;;10.90;100.00;97241.69;5084386;28;20036;-58
2022/10/23 03:41:02;;;;;;;4.57;2.03;;;;;;;10.86;100.00;97235.97;5084280;28;20105;-59
2022/10/23 03:43:29;;;;;;;6.80;2.00;;;;;;;10.84;100.00;97248.94;5085882;28;20044;-60
2022/10/23 03:45:56;;;;;;;4.40;2.10;;;;;;;10.85;100.00;97245.19;5086115;28;20079;-60
2022/10/23 03:48:24;;;;;;;6.53;2.80;;;;;;;10.88;100.00;97233.81;5081261;28;20486;-58
2022/10/23 03:50:55;;;;;;;5.15;2.28;;;;;;;10.80;100.00;97226.97;5084204;28;20063;-60
2022/10/23 03:53:22;;;;;;;6.18;2.40;;;;;;;10.78;100.00;97234.56;5081144;28;20078;-60
2022/10/23 03:55:48;;;;;;;5.82;2.17;;;;;;;10.78;100.00;97229.13;5084223;28;20335;-60
2022/10/23 03:58:16;;;;;;;5.22;1.95;;;;;;;10.79;100.00;97236.19;5084460;28;20051;-60
2022/10/23 04:00:42;;;;;;;4.10;2.10;;;;;;;10.83;100.00;97235.69;5083595;28;20079;-59
2022/10/23 04:03:14;;;;;;;4.50;2.40;;;;;;;10.84;100.00;97238.09;5084722;28;20113;-60
2022/10/23 04:05:41;;;;;;;3.65;2.10;;;;;;;10.93;100.00;97235.75;5086884;28;20321;-59
2022/10/23 04:08:09;;;;;;;3.80;2.40;;;;;;;11.01;100.00;97224.44;5088136;28;20040;-60
2022/10/23 04:10:35;;;;;;;5.15;2.20;;;;;;;11.04;100.00;97226.66;5087109;28;20071;-60
2022/10/23 04:13:02;;;;;;;4.28;1.88;;;;;;;11.16;100.00;97233.75;5089636;28;20086;-60
2022/10/23 04:15:33;;;;;;;4.07;2.22;;;;;;;11.19;100.00;97235.97;5089683;28;20052;-59
2022/10/23 04:18:00;;;;;;;3.42;2.13;;;;;;;11.22;100.00;97230.03;5087442;28;20083;-59
2022/10/23 04:20:29;;;;;;;5.05;2.15;;;;;;;11.20;100.00;97234.88;5087580;28;20067;-58
2022/10/23 04:22:59;;;;;;;3.38;1.75;;;;;;;11.20;100.00;97232.16;5082025;28;20097;-58
2022/10/23 04:25:26;;;;;;;4.20;2.20;;;;;;;11.20;100.00;97229.47;5067431;28;20109;-59
2022/10/23 04:27:52;;;;;;;3.50;1.77;;;;;;;11.23;100.00;97222.69;5067244;28;20561;-59
2022/10/23 04:30:19;;;;;;;4.50;1.63;;;;;;;11.18;100.00;97229.72;5067426;28;20052;-60
2022/10/23 04:32:49;;;;;;;5.70;1.92;;;;;;;11.22;100.00;97234.63;5066933;28;20055;-59
2022/10/23 04:35:16;;;;;;;4.57;1.75;;;;;;;11.23;100.00;97231.66;5068632;28;20581;-60
2022/10/23 04:37:43;;;;;;;6.35;1.73;;;;;;;11.29;100.00;97233.34;5067114;28;20052;-60
2022/10/23 04:40:11;;;;;;;5.88;1.63;;;;;;;11.36;100.00;97235.00;5066489;28;20075;-60
2022/10/23 04:42:37;;;;;;;4.28;1.80;;;;;;;11.35;100.00;97234.19;5079431;28;20166;-60
2022/10/23 04:45:04;;;;;;;3.08;1.58;;;;;;;11.36;100.00;97232.28;5087306;28;20499;-60
2022/10/23 04:47:31;;;;;;;3.65;1.83;;;;;;;11.38;100.00;97222.00;5086792;28;20047;-60
2022/10/23 04:49:58;;;;;;;3.20;1.60;;;;;;;11.39;100.00;97227.16;5078337;28;20044;-59
2022/10/23 04:52:57;;;;;;;4.95;2.10;;;;;;;11.40;100.00;97228.81;5074484;28;20060;-58
2022/10/23 04:55:50;;;;;;;3.45;1.90;;;;;;;11.36;100.00;97224.16;5077337;28;20439;-59
2022/10/23 04:58:26;;;;;;;3.65;1.67;;;;;;;11.31;100.00;97223.06;5078910;28;20040;-59
2022/10/23 05:00:56;;;;;;;3.93;1.73;;;;;;;11.28;100.00;97222.75;5076071;28;20506;-59
2022/10/23 05:03:25;;;;;;;6.60;2.67;;;;;;;11.32;100.00;97221.97;5080178;28;20093;-58
2022/10/23 05:05:54;;;;;;;2.70;1.40;;;;;;;11.35;100.00;97226.03;5073596;28;20114;-59
2022/10/23 05:08:28;;;;;;;4.57;1.67;;;;;;;11.44;100.00;97218.25;5077978;28;20044;-59
2022/10/23 05:11:13;;;;;;;3.63;1.90;;;;;;;11.48;100.00;97221.25;5075820;28;20266;-58
2022/10/23 05:13:44;;;;;;;4.33;1.60;;;;;;;11.44;100.00;97215.53;5080252;28;20047;-58
2022/10/23 05:16:19;;;;;;;4.03;1.77;;;;;;;11.41;100.00;97213.34;5075976;28;20044;-59
2022/10/23 05:18:47;;;;;;;4.50;1.63;;;;;;;11.41;100.00;97203.34;5073203;28;20063;-59
2022/10/23 05:21:26;;;;;;;4.32;1.67;;;;;;;11.43;100.00;97208.50;5087780;28;20050;-59
2022/10/23 05:23:53;;;;;;;5.85;1.65;;;;;;;11.45;100.00;97203.63;5072671;28;20583;-58
2022/10/23 05:26:21;;;;;;;4.82;2.20;;;;;;;11.47;100.00;97204.19;5078569;28;20058;-58
2022/10/23 05:28:50;;;;;;;3.28;1.48;;;;;;;11.53;100.00;97205.84;5085366;28;20594;-58
2022/10/23 05:31:19;;;;;;;3.10;1.73;;;;;;;11.55;100.00;97211.00;5068664;28;20048;-59
2022/10/23 05:33:49;;;;;;;3.80;1.65;;;;;;;11.58;100.00;97207.78;5069655;28;20067;-59
2022/10/23 05:36:19;;;;;;;5.32;1.50;;;;;;;11.55;100.00;97200.97;5074907;28;20420;-59
2022/10/23 05:38:50;;;;;;;3.05;1.52;;;;;;;11.49;100.00;97198.47;5069131;28;20522;-59
2022/10/23 05:41:18;;;;;;;4.28;1.40;;;;;;;11.43;100.00;97200.38;5065103;28;20079;-59
2022/10/23 05:43:45;;;;;;;4.25;1.27;;;;;;;11.47;100.00;97193.34;5085824;28;20048;-59
2022/10/23 05:46:41;;;;;;;4.85;2.22;;;;;;;11.50;100.00;97189.28;5070892;28;20067;-58
2022/10/23 05:49:17;;;;;;;5.40;1.35;;;;;;;11.50;100.00;97190.09;5067490;28;20048;-59
2022/10/23 05:52:10;;;;;;;2.17;1.17;;;;;;;11.52;100.00;97197.97;5066845;28;20590;-58
2022/10/23 05:54:59;;;;;;;2.72;1.02;;;;;;;11.62;100.00;97186.34;5081973;28;20141;-59
2022/10/23 05:57:44;;;;;;;2.58;1.20;;;;;;;11.57;100.00;97179.81;5084985;28;20320;-58
2022/10/23 06:00:13;;;;;;;3.10;1.30;;;;;;;11.49;100.00;97184.91;5068780;28;20044;-61
2022/10/23 06:02:40;;;;;;;3.35;1.40;;;;;;;11.49;100.00;97177.59;5077868;28;20519;-61
2022/10/23 06:05:33;;;;;;;2.33;1.20;;;;;;;11.53;100.00;97176.00;5071177;28;20044;-61
2022/10/23 06:08:14;;;;;;;2.93;1.27;;;;;;;11.61;100.00;97179.31;5083443;28;20173;-58
2022/10/23 06:10:41;;;;;;;4.78;1.17;;;;;;;11.61;100.00;97180.09;5083742;28;20040;-58
2022/10/23 06:13:09;;;;;;;2.80;1.30;;;;;;;11.62;100.00;97178.22;5080819;28;20311;-57
2022/10/23 06:15:35;;;;;;;2.92;1.27;;;;;;;11.62;100.00;97175.50;5083694;28;20532;-58
2022/10/23 06:18:07;;;;;;;5.72;1.55;;;;;;;11.62;100.00;97175.50;5081920;28;20040;-59
2022/10/23 06:20:39;;;;;;;3.45;1.10;;;;;;;11.62;100.00;97167.38;5075315;28;20139;-60
2022/10/23 06:23:14;;;;;;;2.72;1.20;;;;;;;11.63;100.00;97172.53;5068294;28;20050;-59
2022/10/23 06:26:12;;;;;;;2.50;1.00;;;;;;;11.62;100.00;97170.91;5069697;28;20074;-59
2022/10/23 06:28:49;;;;;;;2.15;0.80;;;;;;;11.71;99.89;97173.91;5081257;28;20045;-59
2022/10/23 06:31:18;;;;;;;1.98;1.20;;;;;;;11.79;99.24;97178.84;5073032;28;20056;-59
2022/10/23 06:33:46;;;;;;;2.95;1.30;;;;;;;11.82;99.00;97181.03;5083030;28;20070;-59
2022/10/23 06:36:13;;;;;;;2.80;1.25;;;;;;;11.91;98.17;97175.91;5079381;28;20036;-59
2022/10/23 06:38:41;;;;;;;2.45;1.10;;;;;;;12.04;97.27;97176.47;5082613;28;20579;-60
2022/10/23 06:41:19;;;;;;;2.65;1.10;;;;;;;12.13;96.20;97172.22;5082751;28;20063;-58
2022/10/23 06:43:52;;;;;;;2.10;1.00;;;;;;;12.18;96.00;97161.38;5078303;28;20071;-58
2022/10/23 06:46:37;;;;;;;3.03;1.20;;;;;;;12.17;95.90;97159.72;5083319;28;20052;-59
2022/10/23 06:49:32;;;;;;;2.53;0.88;;;;;;;12.17;95.49;97156.22;5083708;28;20072;-58
2022/10/23 06:52:00;;;;;;;2.10;1.10;;;;;;;12.18;95.30;97161.38;5077632;28;20520;-59
2022/10/23 06:54:26;;;;;;;1.67;1.00;;;;;;;12.20;95.41;97163.84;5082228;28;20088;-60
2022/10/23 06:57:16;;;;;;;2.67;1.10;;;;;;;12.18;95.60;97155.94;5071659;28;20067;-59
2022/10/23 06:59:45;;;;;;;3.90;0.95;;;;;;;12.23;95.20;97166.81;5082348;28;20048;-59
2022/10/23 07:02:11;;;;;;;2.97;1.00;;;;;;;12.29;94.74;97164.94;5083567;28;20044;-59
2022/10/23 07:04:40;;;;;;;1.70;0.88;;;;;;;12.34;94.42;97164.94;5071231;28;20070;-58
2022/10/23 07:07:12;;;;;;;2.33;1.05;;;;;;;12.39;94.14;97166.03;5072561;28;20040;-59
2022/10/23 07:09:44;;;;;;;4.57;0.95;;;;;;;12.41;94.05;97161.97;5073145;28;20427;-58
2022/10/23 07:12:23;;;;;;;2.83;0.88;;;;;;;12.47;93.21;97162.78;5073879;28;20067;-59
2022/10/23 07:15:04;;;;;;;1.98;0.75;;;;;;;12.51;92.98;97172.03;5071565;28;20048;-58
2022/10/23 07:17:32;;;;;;;1.55;0.80;;;;;;;12.55;92.90;97164.16;5067229;28;20258;-58
2022/10/23 07:19:58;;;;;;;2.20;0.73;;;;;;;12.55;92.49;97170.41;5074862;28;20040;-58
2022/10/23 07:22:25;;;;;;;2.45;0.95;;;;;;;12.61;92.23;97179.38;5082105;28;20051;-59
2022/10/23 07:25:12;;;;;;;2.20;0.73;;;;;;;12.65;91.94;97169.59;5074468;28;20049;-59
2022/10/23 07:27:39;;;;;;;3.40;0.85;;;;;;;12.70;91.58;97169.59;5079154;28;20101;-59
2022/10/23 07:30:08;;;;;;;2.63;0.80;;;;;;;12.79;91.11;97169.88;5075191;28;20538;-58
2022/10/23 07:32:44;;;;;;;2.25;0.80;;;;;;;12.85;90.76;97167.97;5068125;28;20044;-58
2022/10/23 07:35:12;;;;;;;3.20;0.90;;;;;;;12.91;90.43;97175.03;5081334;28;20147;-59
2022/10/23 07:37:51;;;;;;;1.35;0.70;;;;;;;12.96;90.15;97182.38;5068629;28;20067;-58
2022/10/23 07:40:18;;;;;;;4.15;0.98;;;;;;;12.98;89.70;97180.19;5080978;28;20180;-58
2022/10/23 07:42:45;;;;;;;1.58;0.70;;;;;;;12.97;89.97;97181.31;5079230;28;20066;-58
2022/10/23 07:45:13;;;;;;;4.68;1.10;;;;;;;12.99;89.68;97185.38;5079568;28;20058;-59
2022/10/23 07:47:42;;;;;;;1.38;0.70;;;;;;;13.03;89.47;97185.63;5065912;28;20048;-59
2022/10/23 07:50:12;;;;;;;1.38;0.75;;;;;;;13.07;89.90;97181.28;5065925;28;20036;-58
2022/10/23 07:52:38;;;;;;;1.55;0.85;;;;;;;13.08;89.57;97182.91;5065986;28;20076;-60
2022/10/23 07:55:09;;;;;;;2.50;0.85;;;;;;;13.16;89.36;97184.25;5082135;28;20085;-58
2022/10/23 07:57:38;;;;;;;2.30;0.77;;;;;;;13.20;89.41;97184.53;5071374;28;20044;-60
2022/10/23 08:00:31;;;;;;;2.13;0.80;;;;;;;13.23;88.65;97179.34;5066504;28;20048;-58
2022/10/23 08:03:11;;;;;;;5.47;0.80;;;;;;;13.32;88.71;97174.19;5067307;28;20040;-59
2022/10/23 08:05:38;;;;;;;1.10;0.70;;;;;;;13.37;88.19;97159.75;5067552;28;20051;-59
2022/10/23 08:08:04;;;;;;;2.30;1.02;;;;;;;13.45;87.70;97156.47;5068899;28;20495;-59
2022/10/23 08:10:31;;;;;;;2.75;0.90;;;;;;;13.58;86.92;97157.00;5067521;28;20090;-59
2022/10/23 08:12:58;;;;;;;2.35;0.75;;;;;;;13.70;86.21;97159.41;5081565;28;20059;-59
2022/10/23 08:15:46;;;;;;;2.50;0.70;;;;;;;13.76;85.62;97158.31;5089095;28;20060;-59
2022/10/23 08:18:32;;;;;;;3.47;0.88;;;;;;;13.84;85.61;97157.75;5088362;28;20418;-59
2022/10/23 08:21:01;;;;;;;2.05;0.80;;;;;;;13.95;85.45;97163.94;5085663;28;20039;-59
2022/10/23 08:23:28;;;;;;;1.98;0.90;;;;;;;14.09;84.22;97149.72;5068424;28;20105;-59
2022/10/23 08:25:59;;;;;;;2.42;0.70;;;;;;;14.10;83.41;97135.84;5068602;28;20115;-59
2022/10/23 08:28:28;;;;;;;2.95;1.45;;;;;;;14.11;83.11;97132.00;5067092;28;20045;-58
2022/10/23 08:30:56;;;;;;;1.98;0.75;;;;;;;14.20;83.29;97137.69;5067283;28;20527;-60
2022/10/23 08:33:24;;;;;;;3.97;0.77;;;;;;;14.27;82.69;97135.44;5068146;28;20075;-59
2022/10/23 08:35:51;;;;;;;5.32;1.30;;;;;;;14.46;82.05;97133.97;5067293;28;20045;-59
2022/10/23 08:38:26;;;;;;;1.40;0.80;;;;;;;14.51;81.53;97133.94;5066664;28;20056;-60
2022/10/23 08:40:54;;;;;;;2.17;0.73;;;;;;;14.54;81.83;97145.09;5082596;28;20055;-60
2022/10/23 08:44:06;;;;;;;2.40;0.75;;;;;;;14.53;81.89;97138.00;5078618;28;20047;-59
2022/10/23 08:46:45;;;;;;;1.50;0.70;;;;;;;14.55;82.69;97138.53;5078960;28;20568;-59
2022/10/23 08:49:55;;;;;;;2.88;0.90;;;;;;;14.72;82.15;97142.78;5082630;28;20161;-59
2022/10/23 08:52:51;;;;;;;3.60;0.95;;;;;;;14.91;80.47;97142.09;5069040;28;20512;-60
2022/10/23 08:55:37;;;;;;;1.63;0.55;;;;;;;15.08;81.34;97134.31;5076902;28;20056;-59
2022/10/23 08:58:28;;;;;;;3.67;1.05;;;;;;;15.24;79.85;97134.16;5084956;28;20118;-60
2022/10/23 09:00:54;;;;;;;0.93;0.40;;;;;;;15.36;78.82;97136.50;5066669;28;20047;-59
2022/10/23 09:03:21;;;;;;;1.80;0.63;;;;;;;15.46;79.20;97141.03;5067285;28;20075;-60
2022/10/23 09:05:47;;;;;;;1.85;0.77;;;;;;;15.65;77.96;97132.91;5067683;28;20051;-59
2022/10/23 09:08:38;;;;;;;3.05;0.63;;;;;;;15.80;77.10;97126.44;5068222;28;20123;-60
2022/10/23 09:11:24;;;;;;;1.35;0.80;;;;;;;15.87;76.99;97128.81;5067753;28;20481;-59
2022/10/23 09:14:04;;;;;;;1.70;0.80;;;;;;;15.91;75.64;97131.75;5067574;28;20047;-59
2022/10/23 09:16:34;;;;;;;1.67;0.88;;;;;;;16.02;76.97;97133.28;5067225;28;20082;-60
2022/10/23 09:19:01;;;;;;;2.15;0.73;;;;;;;16.11;76.26;97137.00;5067411;28;20578;-59
2022/10/23 09:21:28;;;;;;;1.88;0.93;;;;;;;16.17;76.00;97129.53;5072343;28;20050;-60
2022/10/23 09:23:55;;;;;;;1.25;0.70;;;;;;;16.30;74.65;97128.00;5068911;28;20039;-60
2022/10/23 09:26:22;;;;;;;0.90;0.65;;;;;;;16.45;73.51;97126.16;5067636;28;20067;-60
2022/10/23 09:29:00;;;;;;;2.97;0.93;;;;;;;16.55;75.65;97116.97;5067438;28;20046;-60
2022/10/23 09:31:27;;;;;;;1.30;0.60;;;;;;;16.61;74.65;97111.13;5067415;28;20542;-59
2022/10/23 09:33:56;;;;;;;1.15;0.68;;;;;;;16.66;73.02;97109.44;5067245;28;20048;-60
2022/10/23 09:36:26;;;;;;;2.15;0.65;;;;;;;16.77;72.51;97121.84;5067759;28;20060;-59
2022/10/23 09:38:55;;;;;;;1.35;0.70;;;;;;;16.86;72.27;97120.03;5066502;28;20115;-60
2022/10/23 09:41:37;;;;;;;1.35;0.70;;;;;;;16.93;71.07;97100.50;5067765;28;20127;-60
2022/10/23 09:44:06;;;;;;;2.45;0.75;;;;;;;16.94;70.88;97104.84;5087274;28;20448;-60
2022/10/23 09:46:36;;;;;;;3.08;0.52;;;;;;;17.03;70.49;97104.97;5086201;28;20514;-58
2022/10/23 09:49:02;;;;;;;1.75;0.57;;;;;;;17.08;69.33;97093.97;5086977;28;20154;-59
2022/10/23 09:51:31;;;;;;;1.45;0.50;;;;;;;17.11;68.24;97092.56;5087335;28;20382;-59
2022/10/23 09:53:59;;;;;;;1.77;0.60;;;;;;;17.16;67.60;97082.34;5087443;28;20478;-59
2022/10/23 09:56:31;;;;;;;4.75;0.70;;;;;;;17.31;67.31;97096.03;5087451;28;20507;-59
2022/10/23 09:59:01;;;;;;;1.52;0.60;;;;;;;17.48;67.23;97104.44;5087888;28;20040;-59
2022/10/23 10:01:31;;;;;;;1.50;0.50;;;;;;;17.63;65.36;97113.47;5068804;28;20565;-59
2022/10/23 10:04:18;;;;;;;1.07;0.43;;;;;;;17.76;64.69;97120.06;5071638;28;20048;-60
2022/10/23 10:06:45;;;;;;;4.25;0.75;;;;;;;17.83;65.34;97122.38;5086549;28;20093;-59
2022/10/23 10:09:15;;;;;;;1.42;0.40;;;;;;;17.97;65.33;97111.38;5083537;28;20044;-60
2022/10/23 10:11:50;;;;;;;2.28;0.45;;;;;;;18.06;64.17;97113.09;5076326;28;20142;-60
2022/10/23 10:14:29;;;;;;;1.02;0.47;;;;;;;17.96;63.44;97110.59;5084679;28;20039;-60
2022/10/23 10:17:17;;;;;;;1.27;0.50;;;;;;;17.95;64.02;97103.50;5071580;28;20105;-59
2022/10/23 10:20:34;;;;;;;1.15;0.40;;;;;;;17.94;62.73;97107.34;5070316;28;20047;-59
2022/10/23 10:23:12;;;;;;;3.03;0.45;;;;;;;18.07;63.29;97111.97;5069779;28;20066;-60
2022/10/23 10:26:13;;;;;;;1.85;0.60;;;;;;;18.11;62.93;97104.00;5082351;28;20067;-59
2022/10/23 10:29:29;;;;;;;1.88;0.60;;;;;;;18.13;60.30;97109.19;5080686;28;20444;-59
2022/10/23 10:32:23;;;;;;;0.73;0.50;;;;;;;18.29;59.88;97096.75;5077487;28;20103;-59
2022/10/23 10:35:03;;;;;;;1.05;0.60;;;;;;;18.33;59.44;97096.94;5086220;28;20679;-59
2022/10/23 10:38:01;;;;;;;1.60;0.40;;;;;;;18.47;60.05;97077.69;5086731;28;20048;-60
2022/10/23 10:41:03;;;;;;;2.85;0.60;;;;;;;18.37;60.49;97058.75;5085969;28;20589;-60
2022/10/23 10:43:44;;;;;;;0.65;0.35;;;;;;;18.34;61.40;97060.19;5086804;28;20127;-59
2022/10/23 10:46:19;;;;;;;0.95;0.40;;;;;;;18.38;62.33;97063.91;5086164;28;20038;-59
2022/10/23 10:49:00;;;;;;;2.60;0.80;;;;;;;18.38;62.71;97071.31;5086516;28;20749;-59
2022/10/23 10:52:00;;;;;;;4.38;0.85;;;;;;;18.36;63.04;97084.53;5085861;28;20161;-59
2022/10/23 10:54:41;;;;;;;1.42;0.55;;;;;;;18.41;61.01;97095.38;5073334;28;20166;-58
2022/10/23 10:57:38;;;;;;;2.10;1.00;;;;;;;18.41;60.91;97078.94;5074000;28;20032;-60
2022/10/23 11:00:14;;;;;;;1.85;0.60;;;;;;;18.43;61.75;97073.97;5068997;28;20059;-60
2022/10/23 11:03:12;;;;;;;1.33;0.45;;;;;;;18.45;62.23;97088.97;5065963;28;20048;-59
2022/10/23 11:05:45;;;;;;;2.47;0.57;;;;;;;18.44;62.38;97078.31;5053357;28;20519;-60
2022/10/23 11:08:20;;;;;;;2.58;0.63;;;;;;;18.45;62.69;97063.47;5065701;28;20048;-60
2022/10/23 11:10:53;;;;;;;6.53;1.08;;;;;;;18.34;63.47;97060.19;5065898;28;20069;-60
2022/10/23 11:13:31;;;;;;;1.25;0.50;;;;;;;18.30;63.49;97064.66;5070160;28;20115;-58
2022/10/23 11:16:04;;;;;;;5.85;0.90;;;;;;;18.31;63.88;97045.16;5082138;28;20272;-60
2022/10/23 11:18:32;;;;;;;2.97;0.60;;;;;;;18.35;64.43;97041.81;5080798;28;20137;-59
2022/10/23 11:21:16;;;;;;;1.40;0.57;;;;;;;18.35;64.57;97044.56;5088380;28;20074;-59
2022/10/23 11:24:09;;;;;;;1.05;0.45;;;;;;;18.41;63.58;97032.34;5081132;28;20502;-59
2022/10/23 11:27:05;;;;;;;3.60;0.60;;;;;;;18.48;64.33;97027.22;5088516;28;20560;-59
2022/10/23 11:29:53;;;;;;;2.10;0.60;;;;;;;18.61;64.29;97022.78;5087689;28;20098;-59
2022/10/23 11:32:31;;;;;;;4.13;0.40;;;;;;;18.66;63.45;97019.09;5078712;28;20051;-60
2022/10/23 11:35:36;;;;;;;1.60;0.60;;;;;;;18.64;63.40;97021.38;5084974;28;20040;-60
2022/10/23 11:38:16;;;;;;;1.10;0.60;;;;;;;18.68;63.42;97020.41;5083259;28;20119;-59
2022/10/23 11:40:50;;;;;;;1.50;0.60;;;;;;;18.82;62.95;97017.59;5082114;28;20551;-59
2022/10/23 11:43:29;;;;;;;1.17;0.60;;;;;;;18.81;62.81;97015.97;5086724;28;20143;-59
2022/10/23 11:45:56;;;;;;;1.85;0.40;;;;;;;18.83;62.26;97010.97;5087686;28;20162;-60
2022/10/23 11:48:43;;;;;;;1.42;0.50;;;;;;;18.93;62.52;97003.59;5087727;28;20066;-59
2022/10/23 11:51:29;;;;;;;2.00;0.60;;;;;;;18.96;61.34;97011.19;5086886;28;20036;-60
2022/10/23 11:54:10;;;;;;;1.55;0.60;;;;;;;19.02;61.92;97000.88;5084178;28;20104;-59
2022/10/23 11:56:49;;;;;;;2.53;0.60;;;;;;;18.94;61.98;97003.28;5079932;28;20055;-60
2022/10/23 11:59:19;;;;;;;2.67;0.43;;;;;;;18.94;61.96;97002.47;5087300;28;20050;-60
2022/10/23 12:01:48;;;;;;;1.95;0.60;;;;;;;18.97;62.63;97010.06;5085426;28;20052;-60
2022/10/23 12:04:21;;;;;;;1.45;0.55;;;;;;;19.11;61.61;97004.50;5079265;28;20071;-59